createdAt,value
2022-12-16T00:03:54.891Z,99568.50
2022-12-16T00:10:55.492Z,99592.97
2022-12-16T00:17:43.420Z,99569.63
2022-12-16T00:24:31.299Z,99587.50
2022-12-16T00:31:16.748Z,99580.72
2022-12-16T00:38:04.797Z,99583.91
2022-12-16T00:44:50.135Z,99583.19
2022-12-16T00:51:35.552Z,99575.78
2022-12-16T00:58:23.579Z,99597.59
2022-12-16T01:05:10.381Z,99614.94
2022-12-16T01:11:55.551Z,99626.09
2022-12-16T01:18:43.872Z,99644.97
2022-12-16T01:25:30.129Z,99639.06
2022-12-16T01:32:17.143Z,99647.00
2022-12-16T01:39:05.412Z,99643.25
2022-12-16T01:45:51.905Z,99654.75
2022-12-16T01:52:44.318Z,99644.13
2022-12-16T01:59:33.456Z,99641.59
2022-12-16T02:06:18.954Z,99661.19
2022-12-16T02:13:14.387Z,99645.06
2022-12-16T02:20:40.152Z,99651.88
2022-12-16T02:27:55.005Z,99634.94
2022-12-16T02:34:51.936Z,99646.72
2022-12-16T02:41:49.578Z,99645.13
2022-12-16T02:48:34.925Z,99649.94
2022-12-16T02:55:23.927Z,99636.88
2022-12-16T03:02:17.862Z,99615.91
2022-12-16T03:09:08.315Z,99651.66
2022-12-16T03:16:00.722Z,99639.97
2022-12-16T03:22:52.758Z,99647.47
2022-12-16T03:29:45.773Z,99563.06
2022-12-16T03:36:39.102Z,99661.13
2022-12-16T03:43:24.828Z,99665.22
2022-12-16T04:03:34.709Z,99701.03
2022-12-16T04:10:42.271Z,99707.47
2022-12-16T04:17:39.940Z,99715.66
2022-12-16T04:24:31.801Z,99707.34
2022-12-16T04:31:17.464Z,99713.63
2022-12-16T04:38:15.488Z,99742.59
2022-12-16T04:45:30.809Z,99741.28
2022-12-16T04:52:29.135Z,99743.63
2022-12-16T04:59:27.034Z,99763.56
2022-12-16T05:06:28.134Z,99770.16
2022-12-16T05:13:25.961Z,99793.94
2022-12-16T05:20:25.096Z,99779.50
2022-12-16T05:27:25.579Z,99801.59
2022-12-16T05:34:24.904Z,99798.56
2022-12-16T05:41:22.730Z,99825.94
2022-12-16T05:48:23.208Z,99821.03
2022-12-16T05:55:22.220Z,99848.28
2022-12-16T06:02:28.882Z,99849.91
2022-12-16T06:09:29.400Z,99855.44
2022-12-16T06:16:27.311Z,99864.31
2022-12-16T06:23:31.077Z,99882.56
2022-12-16T06:30:31.969Z,99891.13
2022-12-16T06:37:29.829Z,99895.59
2022-12-16T06:44:27.704Z,99916.78
2022-12-16T06:51:28.240Z,99917.97
2022-12-16T06:58:26.108Z,99918.31
2022-12-16T07:05:24.934Z,99936.09
2022-12-16T07:12:25.404Z,99956.09
2022-12-16T07:19:23.310Z,99963.38
2022-12-16T07:26:21.448Z,99978.38
2022-12-16T07:33:21.939Z,99991.69
2022-12-16T07:40:21.189Z,100009.06
2022-12-16T07:47:19.138Z,99997.66
2022-12-16T07:54:20.054Z,100027.66
2022-12-16T08:01:18.088Z,100046.28
2022-12-16T08:08:16.476Z,100047.22
2022-12-16T08:15:17.939Z,100064.09
2022-12-16T08:22:15.795Z,100070.53
2022-12-16T08:29:42.577Z,100082.56
2022-12-16T08:36:34.074Z,100085.72
2022-12-16T08:43:32.117Z,100080.81
2022-12-16T08:50:30.336Z,100102.00
2022-12-16T08:57:42.426Z,100115.63
2022-12-16T09:04:40.269Z,100137.00
2022-12-16T09:11:38.152Z,100114.25
2022-12-16T09:18:38.626Z,100152.22
2022-12-16T09:25:36.518Z,100150.94
2022-12-16T09:32:37.475Z,100147.03
2022-12-16T09:39:38.491Z,100156.44
2022-12-16T09:46:47.730Z,100164.44
2022-12-16T09:54:06.182Z,100123.19
2022-12-16T10:01:07.302Z,100163.88
2022-12-16T10:08:18.966Z,100142.34
2022-12-16T10:15:41.502Z,100160.06
2022-12-16T10:22:49.476Z,100146.63
2022-12-16T10:29:54.285Z,100150.28
2022-12-16T10:36:54.871Z,100151.66
2022-12-16T10:44:02.195Z,100165.06
2022-12-16T10:51:00.055Z,100183.69
2022-12-16T10:58:12.742Z,100178.78
2022-12-16T11:05:14.033Z,100179.94
2022-12-16T11:12:34.947Z,100161.75
2022-12-16T11:19:37.496Z,100186.22
2022-12-16T11:26:38.036Z,100172.63
2022-12-16T11:33:40.318Z,100197.00
2022-12-16T11:40:39.252Z,100154.78
2022-12-16T11:47:52.532Z,100190.97
2022-12-16T11:54:54.162Z,100152.38
2022-12-16T12:09:20.611Z,100221.59
2022-12-16T12:16:30.572Z,100204.22
2022-12-16T12:23:36.525Z,100208.19
2022-12-16T12:30:39.365Z,100234.50
2022-12-16T12:37:43.151Z,100230.47
2022-12-16T12:44:58.597Z,100226.41
2022-12-16T12:52:07.438Z,100233.09
2022-12-16T12:59:08.776Z,100252.78
2022-12-16T13:06:08.298Z,100266.88
2022-12-16T13:13:52.162Z,100270.97
2022-12-16T13:20:53.355Z,100285.81
2022-12-16T13:28:13.079Z,100279.59
2022-12-16T13:35:16.260Z,100278.88
2022-12-16T13:42:16.676Z,100277.78
2022-12-16T13:50:02.935Z,100306.75
2022-12-16T13:57:05.821Z,100305.69
2022-12-16T14:04:07.125Z,100314.22
2022-12-16T14:11:14.724Z,100324.88
2022-12-16T14:18:21.144Z,100322.28
2022-12-16T14:25:27.957Z,100354.81
2022-12-16T14:32:44.834Z,100357.63
2022-12-16T14:39:47.125Z,100355.72
2022-12-16T14:46:47.004Z,100373.97
2022-12-16T14:53:49.274Z,100367.22
2022-12-16T15:00:51.258Z,100380.53
2022-12-16T15:07:53.592Z,100404.72
2022-12-16T15:15:02.385Z,100302.41
2022-12-16T15:22:00.709Z,100427.22
2022-12-16T15:29:00.265Z,100443.31
2022-12-16T15:36:02.993Z,100439.78
2022-12-16T15:43:06.968Z,100445.28
2022-12-16T15:50:06.024Z,100469.50
2022-12-16T15:57:06.473Z,100472.69
2022-12-16T16:04:07.458Z,100478.38
2022-12-16T16:11:05.451Z,100491.53
2022-12-16T16:18:11.861Z,100521.75
2022-12-16T16:25:09.837Z,100508.53
2022-12-16T16:32:08.607Z,100523.13
2022-12-16T16:39:09.466Z,100528.38
2022-12-16T16:46:10.522Z,100530.25
2022-12-16T16:53:08.466Z,100539.69
2022-12-16T17:00:09.503Z,100558.41
2022-12-16T17:07:07.478Z,100556.75
2022-12-16T17:14:05.545Z,100564.94
2022-12-16T17:21:06.506Z,100506.13
2022-12-16T17:28:04.357Z,100597.19
2022-12-16T17:35:02.291Z,100585.06
2022-12-16T17:42:02.710Z,100586.34
2022-12-16T17:49:00.675Z,100608.72
2022-12-16T17:55:59.368Z,100605.13
2022-12-16T18:03:00.001Z,100627.03
2022-12-16T18:09:58.742Z,100629.81
2022-12-16T18:16:56.640Z,100643.91
2022-12-16T18:23:57.043Z,100631.47
2022-12-16T18:30:54.881Z,100670.66
2022-12-16T18:37:52.763Z,100661.94
2022-12-16T18:44:59.182Z,100676.63
2022-12-16T18:52:00.597Z,100678.63
2022-12-16T18:59:00.002Z,100675.59
2022-12-16T19:06:09.367Z,100692.38
2022-12-16T19:13:13.830Z,100717.13
2022-12-16T19:20:11.719Z,100723.06
2022-12-16T19:27:15.484Z,100737.56
2022-12-16T19:34:13.597Z,100754.47
2022-12-16T19:41:11.735Z,100754.19
2022-12-16T19:48:24.810Z,100751.59
2022-12-16T19:55:23.734Z,100747.94
2022-12-16T20:02:22.334Z,100777.44
2022-12-16T20:09:22.918Z,100785.63
2022-12-16T20:16:24.551Z,100797.16
2022-12-16T20:23:22.673Z,100792.13
2022-12-16T20:30:25.521Z,100796.41
2022-12-16T20:37:23.478Z,100818.88
2022-12-16T20:44:21.726Z,100813.31
2022-12-16T20:51:26.538Z,100824.41
2022-12-16T20:58:24.903Z,100846.78
2022-12-16T21:05:24.644Z,100848.56
2022-12-16T21:12:25.464Z,100856.50
2022-12-16T21:19:27.906Z,100885.94
2022-12-16T21:26:29.342Z,100891.19
2022-12-16T21:33:36.272Z,100900.63
2022-12-16T21:40:34.276Z,100872.13
2022-12-16T21:47:32.339Z,100920.63
2022-12-16T21:54:32.759Z,100911.00
2022-12-16T22:01:30.643Z,100921.56
2022-12-16T22:08:28.794Z,100939.19
2022-12-16T22:15:29.585Z,100934.53
2022-12-16T22:22:27.466Z,100950.16
2022-12-16T22:29:25.371Z,100983.13
2022-12-16T22:36:26.990Z,100983.59
2022-12-16T22:43:24.888Z,100986.97
2022-12-16T22:50:23.884Z,101002.34
2022-12-16T22:57:24.378Z,101013.41
2022-12-16T23:04:22.260Z,101005.38
2022-12-16T23:11:32.124Z,101020.72
2022-12-16T23:18:32.508Z,101026.53
2022-12-16T23:25:30.508Z,101016.16
2022-12-16T23:32:37.682Z,101025.75
2022-12-16T23:39:37.909Z,101039.16
2022-12-16T23:46:35.824Z,101048.25
2022-12-16T23:53:34.050Z,101065.44
